Time;durP1;ratioP1;P1;durP2;ratioP2;P2;SDS_P1;SDS_P2;PMS_P1;PMS_P2;Temp;Humidity;BMP_temperature;BMP_pressure;BME280_temperature;BME280_humidity;BME280_pressure;Samples;Min_cycle;Max_cycle;Signal;HPM_P1;HPM_P2
2021/08/16 00:01:06;;;;;;;26.70;7.15;;;;;;;28.22;30.56;99578.97;4977913;28;20047;-87
2021/08/16 00:03:33;;;;;;;19.70;6.03;;;;;;;28.07;32.66;99575.66;4977949;28;20142;-89
2021/08/16 00:06:00;;;;;;;15.73;4.22;;;;;;;28.07;32.70;99573.84;4977771;28;20599;-88
2021/08/16 00:08:29;;;;;;;19.02;5.60;;;;;;;27.96;32.30;99576.28;4977637;28;20053;-89
2021/08/16 00:10:56;;;;;;;16.33;5.03;;;;;;;28.01;31.93;99569.28;4977034;28;20055;-87
2021/08/16 00:13:26;;;;;;;16.73;5.43;;;;;;;28.20;32.21;99570.31;4977419;28;20043;-88
2021/08/16 00:15:53;;;;;;;32.05;6.53;;;;;;;28.14;30.78;99577.31;4976775;28;20050;-89
2021/08/16 00:18:19;;;;;;;21.50;5.75;;;;;;;28.10;30.86;99572.59;4976968;28;20050;-89
2021/08/16 00:20:46;;;;;;;19.73;5.15;;;;;;;28.25;31.12;99564.34;4977255;28;20050;-83
2021/08/16 00:23:13;;;;;;;23.08;5.30;;;;;;;27.76;32.52;99562.91;4976914;28;20101;-85
2021/08/16 00:25:40;;;;;;;22.63;6.45;;;;;;;27.54;33.54;99562.19;4976782;28;20049;-85
2021/08/16 00:28:07;;;;;;;26.70;5.40;;;;;;;27.47;33.67;99553.34;4976986;28;20066;-85
2021/08/16 00:30:34;;;;;;;24.17;6.15;;;;;;;27.46;33.66;99552.50;4976689;28;20042;-84
2021/08/16 00:33:01;;;;;;;27.17;6.03;;;;;;;27.33;33.68;99558.66;4976449;28;20038;-86
2021/08/16 00:35:28;;;;;;;27.88;5.57;;;;;;;27.22;34.01;99550.38;4976659;28;20509;-88
2021/08/16 00:37:55;;;;;;;19.65;4.53;;;;;;;27.28;33.74;99546.94;4977109;28;20548;-87
2021/08/16 00:40:22;;;;;;;20.48;6.03;;;;;;;27.28;34.06;99547.75;4977409;28;20039;-89
2021/08/16 00:42:49;;;;;;;16.92;4.97;;;;;;;27.10;33.93;99548.28;4977234;28;20039;-87
2021/08/16 00:45:15;;;;;;;28.55;5.97;;;;;;;27.30;34.05;99558.25;4976807;28;20042;-87
2021/08/16 00:47:42;;;;;;;18.02;6.10;;;;;;;27.32;34.24;99561.53;4977251;28;20451;-86
2021/08/16 00:50:11;;;;;;;24.75;7.80;;;;;;;27.30;34.48;99566.28;4976309;28;20098;-86
2021/08/16 00:52:42;;;;;;;21.63;5.32;;;;;;;26.95;34.68;99562.81;4976825;28;20039;-87
2021/08/16 00:55:13;;;;;;;24.48;5.65;;;;;;;26.96;34.25;99557.28;4976801;28;20494;-87
2021/08/16 00:57:41;;;;;;;12.65;4.97;;;;;;;26.90;34.52;99547.38;4976920;28;20039;-86
2021/08/16 01:00:10;;;;;;;27.70;6.57;;;;;;;27.02;34.54;99550.31;4975425;28;20035;-85
2021/08/16 01:02:41;;;;;;;23.42;6.43;;;;;;;26.75;36.00;99538.66;4976845;28;20105;-86
2021/08/16 01:05:11;;;;;;;24.58;6.43;;;;;;;26.84;35.53;99542.81;4976857;28;20043;-86
2021/08/16 01:07:44;;;;;;;35.83;6.15;;;;;;;26.69;35.42;99544.81;4977193;28;20374;-87
2021/08/16 01:10:12;;;;;;;19.02;6.82;;;;;;;26.83;35.40;99549.19;4974788;28;20065;-87
2021/08/16 01:12:39;;;;;;;19.63;5.22;;;;;;;26.71;35.70;99561.47;4976419;28;20117;-85
2021/08/16 01:15:08;;;;;;;18.95;5.28;;;;;;;26.69;35.94;99575.03;4976531;28;20097;-86
2021/08/16 01:17:36;;;;;;;16.13;4.78;;;;;;;26.81;35.41;99575.31;4975878;28;20548;-88
2021/08/16 01:20:09;;;;;;;29.45;6.25;;;;;;;26.69;35.61;99568.88;4976205;28;20042;-85
2021/08/16 01:22:37;;;;;;;14.13;5.00;;;;;;;26.68;35.81;99567.19;4974559;28;20047;-86
2021/08/16 01:25:06;;;;;;;23.50;4.88;;;;;;;26.61;36.75;99570.66;4975950;28;20055;-87
2021/08/16 01:27:33;;;;;;;24.90;7.07;;;;;;;27.14;36.20;99587.00;4975735;28;20051;-88
2021/08/16 01:30:02;;;;;;;31.90;6.60;;;;;;;26.88;34.92;99584.19;4974625;28;20051;-89
2021/08/16 01:32:29;;;;;;;18.35;6.75;;;;;;;27.04;36.18;99588.38;4959688;28;20103;-87
2021/08/16 01:34:56;;;;;;;21.45;5.75;;;;;;;26.54;36.96;99588.53;4976403;28;20039;-87
2021/08/16 01:37:23;;;;;;;15.52;4.55;;;;;;;25.92;38.40;99578.56;4975292;28;20081;-88
2021/08/16 01:39:49;;;;;;;23.50;5.85;;;;;;;25.70;38.85;99587.56;4974757;28;20055;-90
2021/08/16 01:42:16;;;;;;;13.93;5.80;;;;;;;25.70;39.07;99582.22;4974869;28;20113;-89
2021/08/16 01:44:43;;;;;;;20.13;7.82;;;;;;;25.72;38.79;99581.00;4975731;28;20039;-87
2021/08/16 01:47:09;;;;;;;29.50;6.05;;;;;;;25.74;38.84;99594.19;4975601;28;20102;-87
2021/08/16 01:49:37;;;;;;;15.02;5.28;;;;;;;25.87;38.82;99599.66;4975371;28;20099;-86
2021/08/16 01:52:04;;;;;;;25.15;7.00;;;;;;;25.90;38.52;99601.97;4974622;28;20058;-87
2021/08/16 01:54:31;;;;;;;23.88;4.63;;;;;;;25.98;38.28;99617.84;4975491;28;20039;-87
2021/08/16 01:56:57;;;;;;;20.00;6.03;;;;;;;25.95;38.46;99618.22;4975512;28;20505;-86
2021/08/16 01:59:24;;;;;;;24.65;6.85;;;;;;;25.89;38.53;99619.00;4977489;28;20042;-86
2021/08/16 02:01:51;;;;;;;25.67;5.72;;;;;;;26.01;38.55;99620.13;4979417;28;20061;-86
2021/08/16 02:04:18;;;;;;;17.63;4.72;;;;;;;25.89;38.52;99619.00;4976319;28;20553;-86
2021/08/16 02:06:44;;;;;;;20.67;5.65;;;;;;;25.90;38.30;99615.31;4975420;28;20105;-87
2021/08/16 02:09:11;;;;;;;22.20;4.97;;;;;;;25.99;38.48;99624.81;4975066;28;20039;-86
2021/08/16 02:11:38;;;;;;;18.48;5.47;;;;;;;25.91;38.60;99626.81;4975204;28;20046;-86
2021/08/16 02:14:04;;;;;;;29.75;7.40;;;;;;;25.90;38.96;99633.19;4975036;28;20039;-85
2021/08/16 02:16:31;;;;;;;49.78;5.97;;;;;;;25.95;38.99;99623.56;4975039;28;20445;-86
2021/08/16 02:18:58;;;;;;;24.27;6.10;;;;;;;25.98;39.58;99620.50;4975387;28;20121;-86
2021/08/16 02:21:25;;;;;;;19.65;6.00;;;;;;;25.91;40.07;99626.81;4974774;28;20043;-86
2021/08/16 02:23:51;;;;;;;22.08;6.07;;;;;;;25.90;42.35;99626.00;4974820;28;20135;-85
2021/08/16 02:26:18;;;;;;;23.40;6.30;;;;;;;25.92;42.88;99615.09;4974225;28;20057;-86
2021/08/16 02:28:45;;;;;;;27.55;7.18;;;;;;;25.69;43.59;99608.09;4975022;28;20105;-84
2021/08/16 02:31:12;;;;;;;23.08;7.35;;;;;;;25.64;45.45;99604.34;4974354;28;20046;-84
2021/08/16 02:33:38;;;;;;;25.55;7.18;;;;;;;25.74;45.73;99596.84;4974233;28;20601;-85
2021/08/16 02:36:05;;;;;;;13.50;5.15;;;;;;;25.71;47.58;99602.56;4974483;28;20102;-87
2021/08/16 02:38:32;;;;;;;14.90;5.40;;;;;;;25.59;49.98;99596.91;4974202;28;20047;-87
2021/08/16 02:40:59;;;;;;;13.82;5.60;;;;;;;25.59;50.31;99599.56;4975048;28;20050;-86
2021/08/16 02:43:28;;;;;;;14.82;6.15;;;;;;;25.55;52.01;99590.28;4974666;28;20204;-86
2021/08/16 02:45:55;;;;;;;15.23;7.93;;;;;;;25.74;53.58;99584.34;4973896;28;20038;-86
2021/08/16 02:48:22;;;;;;;19.05;7.25;;;;;;;25.91;55.52;99579.56;4974191;28;20103;-85
2021/08/16 02:50:48;;;;;;;18.05;6.95;;;;;;;25.84;55.76;99579.53;4972568;28;20123;-85
2021/08/16 02:53:15;;;;;;;13.00;5.90;;;;;;;25.96;55.87;99571.00;4978008;28;20049;-84
2021/08/16 02:55:42;;;;;;;11.55;6.20;;;;;;;25.88;57.79;99571.13;4980638;28;20047;-86
2021/08/16 02:58:09;;;;;;;15.45;6.10;;;;;;;25.88;58.09;99569.28;4989250;28;20042;-82
2021/08/16 03:00:36;;;;;;;9.73;6.13;;;;;;;25.92;58.70;99565.19;4996909;28;20078;-84
2021/08/16 03:03:02;;;;;;;13.57;8.23;;;;;;;25.88;59.16;99560.44;4978393;28;20035;-85
2021/08/16 03:05:29;;;;;;;11.32;5.97;;;;;;;25.93;58.85;99558.84;4975066;28;20102;-84
2021/08/16 03:07:56;;;;;;;12.75;6.50;;;;;;;25.75;59.22;99559.31;4974106;28;20038;-84
2021/08/16 03:10:22;;;;;;;13.95;7.00;;;;;;;25.74;59.83;99560.31;4974601;28;20047;-87
2021/08/16 03:12:49;;;;;;;11.15;6.63;;;;;;;25.68;60.60;99552.25;4976642;28;20046;-87
2021/08/16 03:15:16;;;;;;;14.93;7.57;;;;;;;25.70;61.24;99553.69;4978651;28;20038;-87
2021/08/16 03:17:43;;;;;;;12.40;7.07;;;;;;;25.82;60.81;99544.16;4975660;28;20134;-86
2021/08/16 03:20:10;;;;;;;16.88;7.13;;;;;;;25.79;60.89;99543.75;4974846;28;20414;-85
2021/08/16 03:22:37;;;;;;;11.60;6.90;;;;;;;25.74;61.14;99528.31;4975877;28;20051;-86
2021/08/16 03:25:04;;;;;;;12.30;5.70;;;;;;;25.61;61.40;99522.78;4976068;28;20042;-88
2021/08/16 03:27:31;;;;;;;16.27;6.75;;;;;;;25.66;61.60;99516.88;4974056;28;20039;-89
2021/08/16 03:29:58;;;;;;;17.85;8.32;;;;;;;25.57;62.30;99511.69;4975566;28;20058;-89
2021/08/16 03:32:25;;;;;;;14.40;7.03;;;;;;;25.56;63.01;99507.34;4974264;28;20454;-87
2021/08/16 03:34:54;;;;;;;18.67;8.00;;;;;;;25.60;63.28;99497.13;4974936;28;20177;-87
2021/08/16 03:37:21;;;;;;;17.45;7.93;;;;;;;25.46;63.57;99493.53;4972391;28;20043;-85
2021/08/16 03:39:48;;;;;;;11.70;6.93;;;;;;;25.33;64.25;99493.38;4974473;28;20038;-86
2021/08/16 03:42:15;;;;;;;16.88;7.40;;;;;;;25.30;64.41;99496.44;4974055;28;20058;-85
2021/08/16 03:44:43;;;;;;;12.60;6.80;;;;;;;25.36;64.23;99490.34;4973642;28;20098;-85
2021/08/16 03:47:09;;;;;;;13.30;7.30;;;;;;;25.40;64.32;99491.59;4974162;28;20394;-83
2021/08/16 03:49:36;;;;;;;26.55;9.13;;;;;;;25.38;64.63;99488.31;4973149;28;20051;-85
2021/08/16 03:52:03;;;;;;;12.07;7.13;;;;;;;25.50;62.93;99476.09;4974275;28;20047;-85
2021/08/16 03:54:30;;;;;;;17.23;7.50;;;;;;;25.46;64.08;99468.66;4973845;28;20110;-85
2021/08/16 03:56:57;;;;;;;17.48;7.28;;;;;;;25.52;62.04;99471.41;4973815;28;20046;-85
2021/08/16 03:59:24;;;;;;;12.93;7.55;;;;;;;25.58;61.85;99473.31;4973850;28;20077;-84
2021/08/16 04:01:50;;;;;;;13.13;6.95;;;;;;;25.70;59.68;99476.28;4974255;28;20466;-85
2021/08/16 04:04:17;;;;;;;14.27;7.63;;;;;;;25.74;60.93;99472.25;4973478;28;20121;-86
2021/08/16 04:06:45;;;;;;;14.40;7.53;;;;;;;25.72;60.68;99473.41;4973674;28;20050;-87
2021/08/16 04:09:12;;;;;;;17.00;7.18;;;;;;;25.80;59.66;99463.47;4974200;28;20043;-85
2021/08/16 04:11:39;;;;;;;18.20;7.88;;;;;;;26.05;57.97;99458.50;4973515;28;20121;-84
2021/08/16 04:14:05;;;;;;;17.25;7.20;;;;;;;26.11;57.17;99454.22;4973834;28;20050;-85
2021/08/16 04:16:32;;;;;;;19.38;8.60;;;;;;;26.28;56.55;99452.06;4973661;28;20043;-87
2021/08/16 04:18:59;;;;;;;19.35;7.13;;;;;;;26.39;55.75;99454.16;4973588;28;20057;-87
2021/08/16 04:21:26;;;;;;;18.27;7.50;;;;;;;26.42;54.82;99458.31;4973949;28;20047;-85
2021/08/16 04:23:53;;;;;;;22.55;7.43;;;;;;;26.39;54.75;99456.84;4973711;28;20039;-84
2021/08/16 04:26:20;;;;;;;14.13;7.28;;;;;;;26.32;54.69;99458.66;4971863;28;20421;-84
2021/08/16 04:28:46;;;;;;;23.70;7.40;;;;;;;26.29;54.15;99469.72;4973392;28;20066;-84
2021/08/16 04:31:13;;;;;;;19.80;8.35;;;;;;;26.33;53.48;99462.97;4973566;28;20105;-85
2021/08/16 04:33:40;;;;;;;17.20;7.68;;;;;;;26.37;52.73;99469.56;4974044;28;20110;-85
2021/08/16 04:36:07;;;;;;;24.90;8.82;;;;;;;26.33;52.23;99463.78;4981933;28;20478;-85
2021/08/16 04:38:35;;;;;;;25.63;7.38;;;;;;;26.31;52.57;99459.66;4983181;28;20051;-86
2021/08/16 04:41:02;;;;;;;21.67;7.78;;;;;;;26.36;52.13;99459.88;4984287;28;20115;-85
2021/08/16 04:43:28;;;;;;;20.60;7.68;;;;;;;26.10;52.75;99463.25;4984325;28;20050;-85
2021/08/16 04:45:55;;;;;;;13.25;6.82;;;;;;;25.80;53.80;99465.31;4981838;28;20070;-86
2021/08/16 04:48:22;;;;;;;18.83;7.95;;;;;;;25.82;53.41;99469.41;4982463;28;20050;-85
2021/08/16 04:50:49;;;;;;;19.13;7.88;;;;;;;26.02;52.78;99477.56;4992599;28;20047;-85
2021/08/16 04:53:16;;;;;;;21.95;7.75;;;;;;;25.98;52.57;99478.97;4995426;28;20030;-86
2021/08/16 04:55:42;;;;;;;21.73;8.23;;;;;;;25.88;52.75;99483.84;4997475;28;20059;-87
2021/08/16 04:58:09;;;;;;;24.10;7.90;;;;;;;25.91;52.25;99494.13;4996092;28;20031;-86
2021/08/16 05:00:36;;;;;;;23.33;8.00;;;;;;;26.05;51.45;99484.38;4997710;28;20046;-88
2021/08/16 05:03:03;;;;;;;21.02;7.28;;;;;;;26.13;50.90;99492.22;4986350;28;20074;-87
2021/08/16 05:05:30;;;;;;;16.10;7.07;;;;;;;26.38;49.91;99500.63;4977491;28;20368;-85
2021/08/16 05:08:00;;;;;;;25.67;8.23;;;;;;;26.47;49.15;99488.75;4976500;28;20059;-87
2021/08/16 05:10:28;;;;;;;22.92;6.88;;;;;;;26.50;48.59;99500.91;4976655;28;20038;-85
2021/08/16 05:12:58;;;;;;;17.15;7.35;;;;;;;26.71;48.52;99502.66;4975328;28;20545;-84
2021/08/16 05:15:28;;;;;;;31.42;9.23;;;;;;;26.75;48.58;99499.38;4976178;28;20050;-88
2021/08/16 05:17:55;;;;;;;14.23;5.97;;;;;;;26.98;48.46;99506.25;4977211;28;20446;-93
2021/08/16 05:20:22;;;;;;;13.07;7.55;;;;;;;26.95;48.61;99510.13;4975150;28;20074;-82
2021/08/16 05:22:49;;;;;;;20.38;7.22;;;;;;;27.00;48.30;99515.72;4977655;28;20406;-87
2021/08/16 05:25:17;;;;;;;25.50;7.85;;;;;;;27.19;48.26;99521.38;4978529;28;20569;-88
2021/08/16 05:27:46;;;;;;;23.65;8.25;;;;;;;27.12;49.18;99513.34;4980394;28;20042;-88
2021/08/16 05:30:14;;;;;;;28.40;8.43;;;;;;;27.06;49.18;99509.59;4977254;28;20043;-91
2021/08/16 05:32:42;;;;;;;22.00;7.60;;;;;;;27.23;48.32;99525.31;4976313;28;20422;-89
2021/08/16 05:35:09;;;;;;;24.52;7.82;;;;;;;27.18;48.45;99530.44;4976067;28;20066;-89
2021/08/16 05:37:36;;;;;;;21.92;6.22;;;;;;;27.61;47.60;99522.88;4973201;28;20043;-79
2021/08/16 05:40:04;;;;;;;19.77;6.22;;;;;;;27.51;48.56;99531.31;4971297;28;20074;-82
2021/08/16 05:42:31;;;;;;;15.75;6.88;;;;;;;27.77;47.97;99527.06;4973286;28;20442;-77
2021/08/16 05:44:59;;;;;;;28.02;7.63;;;;;;;27.72;49.47;99525.00;4963653;28;20039;-83
2021/08/16 05:47:28;;;;;;;16.20;7.28;;;;;;;27.71;49.04;99527.88;4968718;28;20051;-84
2021/08/16 05:49:55;;;;;;;22.45;7.97;;;;;;;27.19;50.66;99526.72;4970042;28;20499;-86
2021/08/16 05:52:21;;;;;;;21.38;6.85;;;;;;;27.53;50.29;99521.22;4967328;28;20431;-86
2021/08/16 05:54:49;;;;;;;24.85;8.30;;;;;;;27.15;51.03;99527.13;4972620;28;20039;-90
2021/08/16 05:57:16;;;;;;;23.23;8.40;;;;;;;26.84;51.74;99527.59;4967842;28;20061;-89
2021/08/16 05:59:43;;;;;;;20.08;8.77;;;;;;;26.94;51.51;99529.88;4971550;28;20121;-90
2021/08/16 06:02:10;;;;;;;18.83;7.55;;;;;;;27.63;49.61;99536.88;4974063;28;20070;-84
2021/08/16 06:04:37;;;;;;;24.45;8.82;;;;;;;27.75;49.82;99534.44;4974062;28;20498;-85
2021/08/16 06:07:04;;;;;;;27.50;7.30;;;;;;;27.54;50.51;99543.44;4967619;28;20390;-86
2021/08/16 06:09:31;;;;;;;21.83;8.55;;;;;;;27.72;49.84;99550.94;4970991;28;20039;-88
2021/08/16 06:11:58;;;;;;;15.25;7.03;;;;;;;27.89;49.15;99557.53;4971558;28;20119;-93
2021/08/16 06:14:25;;;;;;;18.05;7.47;;;;;;;27.89;48.13;99546.81;4973942;28;20050;-95
2021/08/16 06:16:52;;;;;;;17.75;6.95;;;;;;;28.05;47.55;99546.41;4974655;28;20070;-91
2021/08/16 06:19:19;;;;;;;27.92;9.10;;;;;;;28.20;47.61;99544.34;4966411;28;20049;-88
2021/08/16 06:21:45;;;;;;;21.52;7.43;;;;;;;27.87;48.19;99551.56;4971848;28;20075;-88
2021/08/16 06:24:13;;;;;;;15.38;7.82;;;;;;;27.91;47.76;99556.31;4969482;28;20046;-85
2021/08/16 06:26:40;;;;;;;14.07;6.40;;;;;;;28.14;47.46;99566.59;4973363;28;20093;-83
2021/08/16 06:29:07;;;;;;;20.20;8.68;;;;;;;28.26;46.84;99563.28;4968376;28;20058;-85
2021/08/16 06:31:39;;;;;;;17.67;7.95;;;;;;;28.13;46.97;99556.94;4970383;28;20039;-81
2021/08/16 06:34:09;;;;;;;20.95;7.78;;;;;;;28.28;46.74;99547.81;4970579;28;20075;-83
2021/08/16 06:36:39;;;;;;;24.63;6.72;;;;;;;28.28;46.78;99553.19;4969529;28;20043;-86
2021/08/16 06:39:08;;;;;;;19.45;7.75;;;;;;;28.18;46.59;99561.66;4973766;28;20097;-87
2021/08/16 06:41:35;;;;;;;19.95;6.57;;;;;;;28.45;46.30;99549.91;4978006;28;20055;-81
2021/08/16 06:44:02;;;;;;;26.63;7.05;;;;;;;28.39;46.48;99557.94;4966449;28;20050;-85
2021/08/16 06:46:29;;;;;;;20.23;8.30;;;;;;;28.31;46.38;99556.28;4967960;28;20114;-81
2021/08/16 06:48:55;;;;;;;22.52;7.55;;;;;;;28.49;45.95;99554.81;4963787;28;20059;-77
2021/08/16 06:51:22;;;;;;;16.48;6.88;;;;;;;28.39;46.06;99557.94;4963291;28;20039;-83
2021/08/16 06:53:49;;;;;;;18.83;7.43;;;;;;;28.38;45.87;99556.28;4967193;28;20050;-82
2021/08/16 06:56:16;;;;;;;27.45;6.68;;;;;;;28.18;46.52;99554.44;4969639;28;20552;-81
2021/08/16 06:58:42;;;;;;;23.05;9.43;;;;;;;28.33;46.25;99548.06;4964094;28;20066;-83
2021/08/16 07:01:09;;;;;;;29.73;6.57;;;;;;;27.98;46.79;99561.66;4970432;28;20053;-82
2021/08/16 07:03:36;;;;;;;23.50;7.85;;;;;;;28.14;46.92;99561.25;4964570;28;20046;-85
2021/08/16 07:06:04;;;;;;;25.50;7.20;;;;;;;28.20;46.22;99554.22;4959286;28;20039;-84
2021/08/16 07:08:30;;;;;;;20.58;7.00;;;;;;;28.19;46.64;99550.72;4958498;28;20098;-82
2021/08/16 07:10:57;;;;;;;28.15;8.27;;;;;;;28.23;46.84;99553.84;4957229;28;20095;-83
2021/08/16 07:13:24;;;;;;;23.27;6.45;;;;;;;28.06;47.40;99558.75;4959961;28;20039;-82
2021/08/16 07:15:51;;;;;;;25.23;8.10;;;;;;;28.19;47.53;99556.09;4961712;28;20049;-81
2021/08/16 07:18:18;;;;;;;20.65;8.02;;;;;;;27.96;48.43;99553.00;4956567;28;20031;-81
2021/08/16 07:20:44;;;;;;;17.70;7.80;;;;;;;28.04;48.13;99542.09;4962591;28;20040;-77
2021/08/16 07:23:11;;;;;;;24.83;6.60;;;;;;;28.54;46.80;99550.47;4960977;28;20463;-79
2021/08/16 07:25:38;;;;;;;23.13;7.93;;;;;;;28.49;46.97;99547.59;4973716;28;20486;-81
2021/08/16 07:28:05;;;;;;;17.92;7.13;;;;;;;28.42;47.01;99546.81;4964112;28;20382;-80
2021/08/16 07:30:33;;;;;;;18.77;7.45;;;;;;;28.22;47.52;99544.13;4964391;28;20453;-79
2021/08/16 07:33:00;;;;;;;24.95;7.40;;;;;;;28.42;46.98;99544.94;4973178;28;20121;-80
2021/08/16 07:35:27;;;;;;;17.80;6.55;;;;;;;28.16;47.13;99547.63;4980049;28;20494;-80
2021/08/16 07:37:55;;;;;;;17.63;6.53;;;;;;;27.78;48.42;99552.78;4969044;28;20449;-79
2021/08/16 07:40:23;;;;;;;17.60;7.07;;;;;;;28.18;47.13;99538.38;4972406;28;20108;-81
2021/08/16 07:42:51;;;;;;;18.67;7.18;;;;;;;27.96;47.42;99536.91;4987502;28;20453;-80
2021/08/16 07:45:18;;;;;;;16.60;7.63;;;;;;;28.41;46.25;99526.41;4966198;28;20058;-81
2021/08/16 07:47:45;;;;;;;21.08;7.43;;;;;;;28.47;46.00;99530.91;4978417;28;20039;-81
2021/08/16 07:50:12;;;;;;;31.85;7.50;;;;;;;28.27;46.30;99524.75;4977497;28;20050;-81
2021/08/16 07:52:43;;;;;;;20.40;8.48;;;;;;;28.59;46.03;99526.53;4978935;28;20097;-83
2021/08/16 07:55:11;;;;;;;20.83;7.45;;;;;;;28.50;46.82;99518.94;4965632;28;20050;-83
2021/08/16 07:57:38;;;;;;;24.50;7.45;;;;;;;28.61;46.16;99519.13;4965766;28;20089;-83
2021/08/16 08:00:08;;;;;;;29.08;8.05;;;;;;;28.42;47.14;99514.63;4970872;28;20039;-83
2021/08/16 08:02:46;;;;;;;21.63;7.53;;;;;;;28.57;46.39;99515.22;4972802;28;20529;-88
2021/08/16 08:05:16;;;;;;;16.30;6.78;;;;;;;28.43;46.91;99509.06;4977854;28;20057;-90
2021/08/16 08:07:43;;;;;;;13.75;6.45;;;;;;;28.51;46.56;99507.22;4974396;28;20055;-85
2021/08/16 08:10:11;;;;;;;22.73;8.18;;;;;;;28.85;45.81;99511.41;4978491;28;20043;-91
2021/08/16 08:12:38;;;;;;;23.63;7.35;;;;;;;29.00;45.26;99511.97;4982238;28;20058;-89
2021/08/16 08:15:06;;;;;;;21.17;6.75;;;;;;;29.20;44.23;99509.19;4976030;28;20081;-85
2021/08/16 08:17:33;;;;;;;25.75;7.28;;;;;;;29.25;44.65;99506.69;4973277;28;20067;-87
2021/08/16 08:20:00;;;;;;;25.42;7.55;;;;;;;29.06;44.76;99500.38;4961338;28;20379;-85
2021/08/16 08:22:27;;;;;;;16.73;7.05;;;;;;;29.09;44.97;99499.97;4977460;28;20111;-90
2021/08/16 08:24:54;;;;;;;21.40;8.88;;;;;;;29.13;44.18;99505.72;4983230;28;20051;-83
2021/08/16 08:27:21;;;;;;;18.67;7.32;;;;;;;29.33;43.64;99506.41;4971394;28;20498;-83
2021/08/16 08:29:49;;;;;;;29.23;7.50;;;;;;;29.34;42.83;99508.06;4973781;28;20047;-90
2021/08/16 08:32:16;;;;;;;26.15;8.57;;;;;;;29.41;43.49;99502.66;4976883;28;20057;-84
2021/08/16 08:34:44;;;;;;;26.90;8.82;;;;;;;29.34;43.67;99499.19;4978083;28;20042;-84
2021/08/16 08:37:13;;;;;;;19.35;6.90;;;;;;;29.49;43.23;99494.34;4980330;28;20049;-88
2021/08/16 08:39:45;;;;;;;25.55;9.10;;;;;;;29.55;43.51;99489.97;4971499;28;20561;-87
2021/08/16 08:42:14;;;;;;;17.23;7.05;;;;;;;29.58;43.51;99487.69;4972308;28;20549;-91
2021/08/16 08:44:42;;;;;;;19.40;7.70;;;;;;;29.65;42.52;99482.25;4975038;28;20376;-91
2021/08/16 08:47:12;;;;;;;26.30;7.57;;;;;;;29.64;42.00;99477.94;4978500;28;20046;-88
2021/08/16 08:49:39;;;;;;;18.35;6.30;;;;;;;29.48;41.32;99488.16;4975332;28;20051;-93
2021/08/16 08:52:06;;;;;;;30.83;8.40;;;;;;;29.46;41.81;99489.41;4979973;28;20565;-86
2021/08/16 08:54:35;;;;;;;16.85;6.90;;;;;;;29.57;41.72;99483.38;4979389;28;20042;-82
2021/08/16 08:57:23;;;;;;;21.10;7.22;;;;;;;29.65;40.19;99475.03;4982930;28;20054;-85
2021/08/16 08:59:50;;;;;;;22.52;7.00;;;;;;;29.71;40.93;99471.47;4976447;28;20097;-84
2021/08/16 09:02:17;;;;;;;21.73;6.65;;;;;;;29.85;40.87;99471.34;4983651;28;20057;-86
2021/08/16 09:04:51;;;;;;;23.30;7.05;;;;;;;29.92;41.10;99472.94;4971236;28;20049;-90
2021/08/16 09:07:29;;;;;;;17.08;6.78;;;;;;;29.69;41.07;99470.88;4969678;28;20047;-88
2021/08/16 09:09:56;;;;;;;19.85;7.38;;;;;;;29.59;41.91;99464.34;4973820;28;20486;-83
2021/08/16 09:12:43;;;;;;;19.10;6.82;;;;;;;29.91;41.11;99459.72;4977980;28;20043;-82
2021/08/16 09:15:20;;;;;;;25.38;8.27;;;;;;;29.84;41.35;99459.78;4973488;28;20051;-86
2021/08/16 09:17:47;;;;;;;29.88;8.25;;;;;;;29.90;40.83;99464.28;4981527;28;20046;-81
2021/08/16 09:20:21;;;;;;;25.35;7.80;;;;;;;29.91;40.78;99463.22;4976263;28;20038;-88
2021/08/16 09:23:07;;;;;;;23.67;7.90;;;;;;;30.03;40.88;99452.56;4978517;28;20046;-85
2021/08/16 09:25:39;;;;;;;18.48;7.70;;;;;;;30.18;40.62;99450.38;4970689;28;20678;-85
2021/08/16 09:28:09;;;;;;;34.85;8.48;;;;;;;29.76;41.28;99446.63;4968147;28;20034;-84
2021/08/16 09:30:39;;;;;;;20.48;9.48;;;;;;;29.88;41.56;99444.88;4970871;28;20047;-85
2021/08/16 09:33:19;;;;;;;22.70;7.28;;;;;;;29.95;41.53;99451.00;4972589;28;20098;-83
2021/08/16 09:35:57;;;;;;;24.67;8.30;;;;;;;30.15;40.93;99447.28;4974377;28;20054;-89
2021/08/16 09:38:42;;;;;;;27.15;9.52;;;;;;;30.26;40.52;99450.09;4973355;28;20510;-86
2021/08/16 09:41:27;;;;;;;21.88;7.22;;;;;;;30.19;40.16;99453.88;4969811;28;20070;-82
2021/08/16 09:44:08;;;;;;;;;;;;;;;30.16;40.97;99444.41;4973522;28;20454;-87
2021/08/16 09:46:36;;;;;;;40.63;10.52;;;;;;;30.30;40.87;99446.94;4973014;28;19921;-83
2021/08/16 09:49:04;;;;;;;15.73;8.13;;;;;;;29.96;41.73;99449.13;4972230;28;20556;-80
2021/08/16 09:51:33;;;;;;;27.27;8.57;;;;;;;30.19;41.15;99443.94;4971973;28;20093;-85
2021/08/16 09:54:01;;;;;;;30.00;9.15;;;;;;;30.24;41.08;99437.91;4972082;28;20105;-87
2021/08/16 09:56:29;;;;;;;19.42;8.70;;;;;;;30.46;40.35;99436.38;4972933;28;20520;-86
2021/08/16 09:58:57;;;;;;;26.65;8.20;;;;;;;30.30;41.14;99433.50;4973173;28;20077;-84
2021/08/16 10:01:27;;;;;;;20.10;8.20;;;;;;;30.66;40.14;99427.25;4970948;28;20039;-82
2021/08/16 10:03:56;;;;;;;30.55;7.82;;;;;;;30.65;41.06;99431.81;4968141;28;20498;-87
2021/08/16 10:06:34;;;;;;;25.73;7.95;;;;;;;30.39;41.66;99424.09;4972990;28;20516;-90
2021/08/16 10:09:02;;;;;;;18.23;7.63;;;;;;;30.80;41.11;99425.25;4971810;28;20046;-90
2021/08/16 10:11:30;;;;;;;27.13;8.32;;;;;;;30.89;40.47;99424.69;4971485;28;20043;-88
2021/08/16 10:13:57;;;;;;;24.67;8.10;;;;;;;30.80;40.64;99415.31;4969165;28;20043;-89
2021/08/16 10:16:30;;;;;;;22.05;9.38;;;;;;;30.64;41.59;99419.41;4960896;28;20502;-92
2021/08/16 10:19:06;;;;;;;21.02;8.57;;;;;;;30.68;41.47;99409.84;4969613;28;20043;-89
2021/08/16 10:21:36;;;;;;;29.05;10.35;;;;;;;31.08;41.20;99409.31;4971018;28;20549;-84
2021/08/16 10:24:18;;;;;;;30.05;8.40;;;;;;;30.89;40.93;99407.72;4972294;28;20549;-84
2021/08/16 10:27:03;;;;;;;35.72;8.55;;;;;;;30.97;41.00;99405.53;4951995;28;20047;-87
2021/08/16 10:29:31;;;;;;;27.13;8.20;;;;;;;31.04;39.93;99405.44;4970536;28;20049;-88
2021/08/16 10:32:00;;;;;;;28.55;8.45;;;;;;;30.93;40.82;99398.97;4965001;28;20866;-85
2021/08/16 10:34:35;;;;;;;17.50;7.90;;;;;;;31.15;40.67;99387.66;4961318;28;20039;-89
2021/08/16 10:37:11;;;;;;;22.60;7.68;;;;;;;31.12;40.92;99402.41;4958548;28;20039;-89
2021/08/16 10:39:39;;;;;;;28.00;7.95;;;;;;;31.32;41.32;99391.38;4964787;28;20074;-89
2021/08/16 10:42:07;;;;;;;23.02;9.23;;;;;;;31.20;41.75;99388.59;4969281;28;20078;-89
2021/08/16 10:44:54;;;;;;;25.23;8.02;;;;;;;31.02;42.54;99377.94;4970530;28;20065;-90
2021/08/16 10:47:31;;;;;;;23.20;8.85;;;;;;;30.94;42.62;99372.88;4968555;28;20047;-90
2021/08/16 10:50:13;;;;;;;24.30;8.63;;;;;;;31.12;42.19;99380.06;4973887;28;20046;-90
2021/08/16 10:52:41;;;;;;;28.95;8.38;;;;;;;31.09;42.01;99375.13;4972324;28;20081;-91
2021/08/16 10:55:10;;;;;;;22.05;7.22;;;;;;;30.89;42.68;99391.56;4970327;28;20055;-89
2021/08/16 10:57:39;;;;;;;24.00;8.52;;;;;;;30.90;42.58;99387.84;4972286;28;20043;-87
2021/08/16 11:00:14;;;;;;;16.40;7.13;;;;;;;30.99;42.26;99364.91;4965467;28;20047;-92
2021/08/16 11:02:42;;;;;;;24.48;8.63;;;;;;;31.22;41.82;99354.22;4972569;28;20046;-88
2021/08/16 11:05:11;;;;;;;24.90;8.65;;;;;;;31.11;41.72;99373.88;4964079;28;20512;-89
2021/08/16 11:07:40;;;;;;;21.17;8.60;;;;;;;31.08;41.67;99370.81;4972895;28;20042;-89
2021/08/16 11:10:11;;;;;;;29.30;9.63;;;;;;;31.21;41.78;99371.38;4971021;28;20046;-90
2021/08/16 11:12:43;;;;;;;23.33;7.90;;;;;;;31.18;42.02;99368.38;4972836;28;20064;-87
2021/08/16 11:15:11;;;;;;;24.90;9.45;;;;;;;31.17;41.94;99364.84;4964614;28;20050;-89
2021/08/16 11:17:38;;;;;;;19.73;8.05;;;;;;;31.24;41.60;99349.41;4973034;28;20445;-91
2021/08/16 11:20:14;;;;;;;28.38;8.15;;;;;;;31.26;41.83;99359.97;4972658;28;20041;-89
2021/08/16 11:22:45;;;;;;;15.43;7.28;;;;;;;31.36;41.58;99346.75;4973096;28;20086;-84
2021/08/16 11:25:15;;;;;;;25.58;8.18;;;;;;;31.55;40.98;99347.44;4967847;28;20055;-82
2021/08/16 11:27:43;;;;;;;21.50;7.63;;;;;;;31.38;41.03;99347.34;4966488;28;20102;-84
2021/08/16 11:30:11;;;;;;;21.13;8.07;;;;;;;31.48;41.24;99338.66;4969935;28;20139;-85